createdAt,value
2022-07-30T00:00:05.819Z,1012.00
2022-07-30T00:01:05.871Z,1012.01
2022-07-30T00:02:05.877Z,1012.03
2022-07-30T00:03:05.913Z,1011.99
2022-07-30T00:04:06.040Z,1012.02
2022-07-30T00:05:05.990Z,1011.99
2022-07-30T00:06:06.034Z,1011.98
2022-07-30T00:07:06.074Z,1011.98
2022-07-30T00:08:06.106Z,1011.95
2022-07-30T00:09:06.147Z,1011.98
2022-07-30T00:10:06.181Z,1011.97
2022-07-30T00:11:06.230Z,1011.98
2022-07-30T00:12:06.257Z,1011.99
2022-07-30T00:13:06.298Z,1011.96
2022-07-30T00:14:06.335Z,1011.99
2022-07-30T00:15:06.371Z,1011.94
2022-07-30T00:16:06.409Z,1011.98
2022-07-30T00:17:06.509Z,1011.95
2022-07-30T00:18:06.486Z,1011.96
2022-07-30T00:19:07.017Z,1011.99
2022-07-30T00:20:06.565Z,1012.02
2022-07-30T00:21:06.603Z,1012.03
2022-07-30T00:22:06.640Z,1012.03
2022-07-30T00:23:06.677Z,1012.03
2022-07-30T00:24:06.719Z,1012.01
2022-07-30T00:25:06.754Z,1012.04
2022-07-30T00:26:06.791Z,1012.00
2022-07-30T00:27:06.827Z,1012.00
2022-07-30T00:28:06.868Z,1012.02
2022-07-30T00:29:06.906Z,1012.01
2022-07-30T00:30:06.945Z,1012.04
2022-07-30T00:31:07.052Z,1011.99
2022-07-30T00:32:07.025Z,1011.99
2022-07-30T00:33:08.138Z,1011.96
2022-07-30T00:34:07.095Z,1011.98
2022-07-30T00:35:07.135Z,1011.97
2022-07-30T00:36:07.173Z,1011.93
2022-07-30T00:37:07.209Z,1011.94
2022-07-30T00:38:07.253Z,1011.91
2022-07-30T00:39:07.284Z,1011.93
2022-07-30T00:40:07.324Z,1011.90
2022-07-30T00:41:07.365Z,1011.95
2022-07-30T00:42:07.401Z,1011.92
2022-07-30T00:43:07.437Z,1011.92
2022-07-30T00:44:07.482Z,1011.93
2022-07-30T00:45:07.515Z,1011.88
2022-07-30T00:46:07.604Z,1011.91
2022-07-30T00:47:07.589Z,1011.96
2022-07-30T00:48:07.640Z,1011.93
2022-07-30T00:49:07.705Z,1011.94
2022-07-30T00:50:07.704Z,1011.93
2022-07-30T00:51:07.745Z,1011.92
2022-07-30T00:52:07.779Z,1011.90
2022-07-30T00:53:07.816Z,1011.89
2022-07-30T00:54:07.857Z,1011.86
2022-07-30T00:55:07.893Z,1011.84
2022-07-30T00:56:07.931Z,1011.82
2022-07-30T00:57:07.973Z,1011.84
2022-07-30T00:58:08.007Z,1011.77
2022-07-30T00:59:08.046Z,1011.77
2022-07-30T01:00:08.083Z,1011.78
2022-07-30T01:01:08.199Z,1011.79
2022-07-30T01:02:08.203Z,1011.80
2022-07-30T01:03:08.195Z,1011.79
2022-07-30T01:04:08.235Z,1011.81
2022-07-30T01:05:08.274Z,1011.84
2022-07-30T01:06:14.218Z,1011.85
2022-07-30T01:07:08.347Z,1011.82
2022-07-30T01:08:08.387Z,1011.85
2022-07-30T01:09:08.431Z,1011.86
2022-07-30T01:10:08.463Z,1011.86
2022-07-30T01:11:08.499Z,1011.85
2022-07-30T01:12:08.549Z,1011.83
2022-07-30T01:13:08.579Z,1011.83
2022-07-30T01:14:08.622Z,1011.83
2022-07-30T01:15:08.652Z,1011.81
2022-07-30T01:16:08.720Z,1011.80
2022-07-30T01:17:08.730Z,1011.81
2022-07-30T01:18:08.771Z,1011.82
2022-07-30T01:19:08.801Z,1011.85
2022-07-30T01:20:08.842Z,1011.87
2022-07-30T01:21:08.878Z,1011.86
2022-07-30T01:22:08.918Z,1011.84
2022-07-30T01:23:08.952Z,1011.84
2022-07-30T01:24:09.000Z,1011.84
2022-07-30T01:25:09.030Z,1011.83
2022-07-30T01:26:09.071Z,1011.81
2022-07-30T01:27:09.109Z,1011.83
2022-07-30T01:28:09.146Z,1011.80
2022-07-30T01:29:09.184Z,1011.78
2022-07-30T01:30:09.222Z,1011.77
2022-07-30T01:31:09.294Z,1011.77
2022-07-30T01:32:09.299Z,1011.75
2022-07-30T01:33:09.334Z,1011.79
2022-07-30T01:34:09.373Z,1011.80
2022-07-30T01:35:09.415Z,1011.81
2022-07-30T01:36:09.449Z,1011.79
2022-07-30T01:37:09.484Z,1011.79
2022-07-30T01:38:09.527Z,1011.81
2022-07-30T01:39:09.561Z,1011.81
2022-07-30T01:40:09.600Z,1011.80
2022-07-30T01:41:09.651Z,1011.82
2022-07-30T01:42:09.677Z,1011.80
2022-07-30T01:43:09.714Z,1011.82
2022-07-30T01:44:09.753Z,1011.79
2022-07-30T01:45:09.788Z,1011.81
2022-07-30T01:46:09.916Z,1011.76
2022-07-30T01:47:09.866Z,1011.81
2022-07-30T01:48:09.902Z,1011.78
2022-07-30T01:49:09.995Z,1011.79
2022-07-30T01:50:11.065Z,1011.75
2022-07-30T01:51:10.015Z,1011.77
2022-07-30T01:52:10.054Z,1011.77
2022-07-30T01:53:10.090Z,1011.73
2022-07-30T01:54:10.135Z,1011.70
2022-07-30T01:55:11.548Z,1011.70
2022-07-30T01:56:10.715Z,1011.71
2022-07-30T01:57:10.240Z,1011.71
2022-07-30T01:58:10.288Z,1011.70
2022-07-30T01:59:10.316Z,1011.71
2022-07-30T02:00:10.385Z,1011.67
2022-07-30T02:01:10.445Z,1011.67
2022-07-30T02:02:10.434Z,1011.67
2022-07-30T02:03:10.505Z,1011.65
2022-07-30T02:04:10.507Z,1011.66
2022-07-30T02:05:10.542Z,1011.66
2022-07-30T02:06:10.586Z,1011.68
2022-07-30T02:07:10.618Z,1011.67
2022-07-30T02:08:10.659Z,1011.68
2022-07-30T02:09:11.501Z,1011.70
2022-07-30T02:10:10.734Z,1011.73
2022-07-30T02:11:10.768Z,1011.77
2022-07-30T02:12:10.806Z,1011.75
2022-07-30T02:13:10.845Z,1011.75
2022-07-30T02:14:10.884Z,1011.74
2022-07-30T02:15:10.923Z,1011.75
2022-07-30T02:16:11.005Z,1011.73
2022-07-30T02:17:18.873Z,1011.75
2022-07-30T02:18:11.032Z,1011.71
2022-07-30T02:19:11.073Z,1011.71
2022-07-30T02:20:11.110Z,1011.73
2022-07-30T02:21:11.740Z,1011.73
2022-07-30T02:22:11.182Z,1011.72
2022-07-30T02:23:11.224Z,1011.69
2022-07-30T02:24:11.260Z,1011.73
2022-07-30T02:25:11.296Z,1011.75
2022-07-30T02:26:11.334Z,1011.72
2022-07-30T02:27:11.369Z,1011.68
2022-07-30T02:28:11.408Z,1011.73
2022-07-30T02:29:11.836Z,1011.74
2022-07-30T02:30:11.493Z,1011.70
2022-07-30T02:31:17.333Z,1011.65
2022-07-30T02:32:11.559Z,1011.68
2022-07-30T02:33:11.596Z,1011.71
2022-07-30T02:34:11.635Z,1011.68
2022-07-30T02:35:11.671Z,1011.65
2022-07-30T02:36:11.710Z,1011.62
2022-07-30T02:37:11.746Z,1011.68
2022-07-30T02:38:11.785Z,1011.60
2022-07-30T02:39:11.819Z,1011.62
2022-07-30T02:40:11.860Z,1011.62
2022-07-30T02:41:11.896Z,1011.65
2022-07-30T02:42:11.935Z,1011.63
2022-07-30T02:43:11.970Z,1011.61
2022-07-30T02:44:12.010Z,1011.59
2022-07-30T02:45:12.044Z,1011.57
2022-07-30T02:46:12.155Z,1011.52
2022-07-30T02:47:12.187Z,1011.55
2022-07-30T02:48:12.160Z,1011.53
2022-07-30T02:49:12.256Z,1011.54
2022-07-30T02:50:12.235Z,1011.49
2022-07-30T02:51:12.270Z,1011.52
2022-07-30T02:52:12.311Z,1011.50
2022-07-30T02:53:12.349Z,1011.53
2022-07-30T02:54:12.603Z,1011.55
2022-07-30T02:55:12.420Z,1011.55
2022-07-30T02:56:12.462Z,1011.53
2022-07-30T02:57:12.505Z,1011.53
2022-07-30T02:58:12.546Z,1011.53
2022-07-30T02:59:12.574Z,1011.57
2022-07-30T03:00:12.610Z,1011.56
2022-07-30T03:01:12.733Z,1011.52
2022-07-30T03:02:12.807Z,1011.53
2022-07-30T03:03:12.724Z,1011.52
2022-07-30T03:04:12.759Z,1011.49
2022-07-30T03:05:12.796Z,1011.48
2022-07-30T03:06:12.836Z,1011.45
2022-07-30T03:07:12.983Z,1011.48
2022-07-30T03:08:12.909Z,1011.46
2022-07-30T03:09:12.944Z,1011.47
2022-07-30T03:10:12.985Z,1011.46
2022-07-30T03:11:13.021Z,1011.46
2022-07-30T03:12:13.059Z,1011.46
2022-07-30T03:13:13.096Z,1011.52
2022-07-30T03:14:13.134Z,1011.56
2022-07-30T03:15:13.170Z,1011.55
2022-07-30T03:16:13.241Z,1011.59
2022-07-30T03:17:13.246Z,1011.56
2022-07-30T03:18:13.287Z,1011.61
2022-07-30T03:19:13.320Z,1011.60
2022-07-30T03:20:13.360Z,1011.64
2022-07-30T03:21:13.395Z,1011.64
2022-07-30T03:22:13.435Z,1011.66
2022-07-30T03:23:13.469Z,1011.64
2022-07-30T03:24:13.510Z,1011.66
2022-07-30T03:25:13.545Z,1011.66
2022-07-30T03:26:13.587Z,1011.68
2022-07-30T03:27:13.621Z,1011.67
2022-07-30T03:28:13.658Z,1011.69
2022-07-30T03:29:13.699Z,1011.64
2022-07-30T03:30:13.733Z,1011.67
2022-07-30T03:31:13.794Z,1011.67
2022-07-30T03:32:15.012Z,1011.70
2022-07-30T03:33:13.843Z,1011.68
2022-07-30T03:34:14.483Z,1011.70
2022-07-30T03:35:17.021Z,1011.69
2022-07-30T03:36:13.956Z,1011.68
2022-07-30T03:37:13.994Z,1011.70
2022-07-30T03:38:14.033Z,1011.70
2022-07-30T03:39:14.068Z,1011.69
2022-07-30T03:40:14.107Z,1011.70
2022-07-30T03:41:14.146Z,1011.67
2022-07-30T03:42:14.182Z,1011.72
2022-07-30T03:43:18.420Z,1011.66
2022-07-30T03:44:14.255Z,1011.70
2022-07-30T03:45:14.292Z,1011.72
2022-07-30T03:46:14.379Z,1011.72
2022-07-30T03:47:14.367Z,1011.72
2022-07-30T03:48:14.406Z,1011.71
2022-07-30T03:49:14.475Z,1011.71
2022-07-30T03:50:14.479Z,1011.76
2022-07-30T03:51:14.515Z,1011.69
2022-07-30T03:52:14.555Z,1011.75
2022-07-30T03:53:14.589Z,1011.72
2022-07-30T03:54:14.635Z,1011.71
2022-07-30T03:55:14.676Z,1011.71
2022-07-30T03:56:14.703Z,1011.74
2022-07-30T03:57:15.317Z,1011.75
2022-07-30T03:58:14.779Z,1011.77
2022-07-30T03:59:14.814Z,1011.82
2022-07-30T04:00:14.860Z,1011.80
2022-07-30T04:01:14.890Z,1011.79
2022-07-30T04:02:14.930Z,1011.83
2022-07-30T04:03:14.962Z,1011.84
2022-07-30T04:04:15.003Z,1011.87
2022-07-30T04:05:15.037Z,1011.91
2022-07-30T04:06:15.077Z,1011.91
2022-07-30T04:07:15.114Z,1011.92
2022-07-30T04:08:15.149Z,1011.94
2022-07-30T04:09:15.187Z,1011.93
2022-07-30T04:10:15.228Z,1011.93
2022-07-30T04:11:15.270Z,1011.92
2022-07-30T04:12:15.300Z,1011.93
2022-07-30T04:13:15.337Z,1011.95
2022-07-30T04:14:15.376Z,1011.97
2022-07-30T04:16:34.294Z,1011.97
2022-07-30T04:16:39.498Z,1011.98
2022-07-30T04:17:15.512Z,1011.97
2022-07-30T04:18:15.524Z,1011.93
2022-07-30T04:19:15.559Z,1011.98
2022-07-30T04:20:18.086Z,1011.98
2022-07-30T04:21:16.954Z,1011.97
2022-07-30T04:22:15.672Z,1011.98
2022-07-30T04:23:15.709Z,1011.99
2022-07-30T04:24:15.747Z,1011.96
2022-07-30T04:25:24.198Z,1011.98
2022-07-30T04:26:15.821Z,1012.01
2022-07-30T04:27:15.972Z,1012.01
2022-07-30T04:28:15.895Z,1012.02
2022-07-30T04:29:18.071Z,1012.02
2022-07-30T04:30:15.972Z,1012.05
2022-07-30T04:31:16.094Z,1012.03
2022-07-30T04:32:16.054Z,1012.06
2022-07-30T04:33:16.082Z,1012.11
2022-07-30T04:34:16.118Z,1012.11
2022-07-30T04:35:49.709Z,1012.16
2022-07-30T04:36:16.502Z,1012.19
2022-07-30T04:37:16.230Z,1012.21
2022-07-30T04:38:23.475Z,1012.22
2022-07-30T04:40:09.242Z,1012.25
2022-07-30T04:41:09.278Z,1012.24
2022-07-30T04:43:02.485Z,1012.20
2022-07-30T04:44:02.514Z,1012.26
2022-07-30T04:45:55.690Z,1012.24
2022-07-30T04:46:55.727Z,1012.24
2022-07-30T04:48:48.768Z,1012.22
2022-07-30T04:49:48.734Z,1012.21
2022-07-30T04:51:53.059Z,1012.19
2022-07-30T04:52:53.059Z,1012.20
2022-07-30T04:54:46.038Z,1012.17
2022-07-30T04:55:46.097Z,1012.18
2022-07-30T04:57:50.122Z,1012.17
2022-07-30T04:58:50.158Z,1012.18
2022-07-30T05:00:43.183Z,1012.13
2022-07-30T05:01:43.239Z,1012.11
2022-07-30T05:03:58.407Z,1012.11
2022-07-30T05:04:58.480Z,1012.13
2022-07-30T05:07:02.997Z,1012.16
2022-07-30T05:08:02.528Z,1012.14
2022-07-30T05:10:06.595Z,1012.18
2022-07-30T05:11:06.621Z,1012.20
2022-07-30T05:12:59.664Z,1012.19
2022-07-30T05:13:59.702Z,1012.17
2022-07-30T05:14:59.735Z,1012.17
2022-07-30T05:15:59.838Z,1012.18
2022-07-30T05:17:00.132Z,1012.17
2022-07-30T05:17:59.865Z,1012.19
2022-07-30T05:18:59.883Z,1012.18
2022-07-30T05:19:59.922Z,1012.14
2022-07-30T05:20:59.958Z,1012.13
2022-07-30T05:22:04.672Z,1012.14
2022-07-30T05:23:00.033Z,1012.13
2022-07-30T05:24:00.074Z,1012.12
2022-07-30T05:25:00.122Z,1012.15
2022-07-30T05:26:00.145Z,1012.13
2022-07-30T05:27:00.419Z,1012.15
2022-07-30T05:28:00.219Z,1012.14
2022-07-30T05:29:00.255Z,1012.11
2022-07-30T05:30:00.296Z,1012.13
2022-07-30T05:31:00.389Z,1012.17
2022-07-30T05:32:02.588Z,1012.14
2022-07-30T05:33:01.424Z,1012.12
2022-07-30T05:34:03.297Z,1012.14
2022-07-30T05:35:00.488Z,1012.13
2022-07-30T05:36:00.519Z,1012.13
2022-07-30T05:37:00.758Z,1012.11
2022-07-30T05:38:00.593Z,1012.10
2022-07-30T05:39:00.642Z,1012.08
2022-07-30T05:40:03.143Z,1012.09
2022-07-30T05:41:00.704Z,1012.06
2022-07-30T05:42:00.746Z,1012.03
2022-07-30T05:43:00.789Z,1012.05
2022-07-30T05:44:00.850Z,1012.03
2022-07-30T05:45:00.855Z,1012.05
2022-07-30T05:46:00.952Z,1012.04
2022-07-30T05:47:01.289Z,1012.02
2022-07-30T05:48:00.971Z,1012.06
2022-07-30T05:49:01.087Z,1012.05
2022-07-30T05:50:04.813Z,1012.06
2022-07-30T05:51:01.077Z,1012.08
2022-07-30T05:52:01.113Z,1012.10
2022-07-30T05:53:01.154Z,1012.12
2022-07-30T05:54:01.190Z,1012.09
2022-07-30T05:55:01.229Z,1012.10
2022-07-30T05:56:01.267Z,1012.09
2022-07-30T05:57:01.628Z,1012.07
2022-07-30T05:58:01.340Z,1012.07
2022-07-30T05:59:01.381Z,1012.08
2022-07-30T06:00:01.418Z,1012.11
2022-07-30T06:01:01.452Z,1012.09
2022-07-30T06:02:01.604Z,1012.11
2022-07-30T06:03:01.525Z,1012.18
2022-07-30T06:04:01.602Z,1012.14
2022-07-30T06:05:01.694Z,1012.18
2022-07-30T06:06:01.641Z,1012.16
2022-07-30T06:07:02.111Z,1012.21
2022-07-30T06:08:01.713Z,1012.19
2022-07-30T06:09:01.754Z,1012.18
2022-07-30T06:10:01.800Z,1012.21
2022-07-30T06:11:01.827Z,1012.24
2022-07-30T06:12:01.863Z,1012.23
2022-07-30T06:13:01.900Z,1012.19
2022-07-30T06:14:01.935Z,1012.23
2022-07-30T06:15:01.973Z,1012.25
2022-07-30T06:16:02.086Z,1012.26
2022-07-30T06:17:02.549Z,1012.24
2022-07-30T06:18:02.582Z,1012.26
2022-07-30T06:19:02.127Z,1012.25
2022-07-30T06:20:02.161Z,1012.26
2022-07-30T06:21:02.198Z,1012.24
2022-07-30T06:22:05.931Z,1012.29
2022-07-30T06:23:02.276Z,1012.27
2022-07-30T06:24:02.320Z,1012.26
2022-07-30T06:25:02.374Z,1012.29
2022-07-30T06:26:02.383Z,1012.27
2022-07-30T06:27:02.826Z,1012.31
2022-07-30T06:28:20.932Z,1012.32
2022-07-30T06:29:02.502Z,1012.34
2022-07-30T06:30:02.534Z,1012.33
2022-07-30T06:31:02.709Z,1012.28
2022-07-30T06:32:02.609Z,1012.28
2022-07-30T06:33:02.659Z,1012.28
2022-07-30T06:34:02.683Z,1012.35
2022-07-30T06:35:05.017Z,1012.37
2022-07-30T06:36:02.757Z,1012.34
2022-07-30T06:37:03.126Z,1012.34
2022-07-30T06:38:07.616Z,1012.34
2022-07-30T06:39:02.877Z,1012.37
2022-07-30T06:40:02.909Z,1012.37
2022-07-30T06:41:04.579Z,1012.36
2022-07-30T06:42:02.989Z,1012.40
2022-07-30T06:43:03.022Z,1012.39
2022-07-30T06:44:03.069Z,1012.41
2022-07-30T06:45:03.101Z,1012.39
2022-07-30T06:46:03.209Z,1012.39
2022-07-30T06:47:07.916Z,1012.43
2022-07-30T06:48:03.205Z,1012.40
2022-07-30T06:49:03.304Z,1012.42
2022-07-30T06:50:03.286Z,1012.41
2022-07-30T06:51:03.323Z,1012.45
2022-07-30T06:52:03.356Z,1012.45
2022-07-30T06:53:03.395Z,1012.46
2022-07-30T06:54:03.434Z,1012.51
2022-07-30T06:55:03.471Z,1012.52
2022-07-30T06:56:03.507Z,1012.52
2022-07-30T06:57:03.915Z,1012.53
2022-07-30T06:58:03.582Z,1012.53
2022-07-30T06:59:03.623Z,1012.55
2022-07-30T07:00:03.657Z,1012.54
2022-07-30T07:01:03.735Z,1012.55
2022-07-30T07:02:03.732Z,1012.52
2022-07-30T07:03:03.773Z,1012.53
2022-07-30T07:04:03.869Z,1012.49
2022-07-30T07:05:03.846Z,1012.51
2022-07-30T07:06:03.884Z,1012.48
2022-07-30T07:07:12.571Z,1012.51
2022-07-30T07:08:03.959Z,1012.54
2022-07-30T07:09:03.997Z,1012.51
2022-07-30T07:10:04.033Z,1012.52
2022-07-30T07:11:04.074Z,1012.53
2022-07-30T07:12:04.108Z,1012.53
2022-07-30T07:13:04.146Z,1012.52
2022-07-30T07:14:04.985Z,1012.51
2022-07-30T07:15:04.222Z,1012.51
2022-07-30T07:16:04.279Z,1012.54
2022-07-30T07:17:04.730Z,1012.56
2022-07-30T07:18:04.337Z,1012.57
2022-07-30T07:19:04.375Z,1012.54
2022-07-30T07:20:04.412Z,1012.51
2022-07-30T07:21:04.451Z,1012.51
2022-07-30T07:22:04.486Z,1012.50
2022-07-30T07:23:09.390Z,1012.52
2022-07-30T07:24:04.559Z,1012.54
2022-07-30T07:25:04.598Z,1012.52
2022-07-30T07:26:04.638Z,1012.54
2022-07-30T07:27:04.682Z,1012.53
2022-07-30T07:28:11.921Z,1012.50
2022-07-30T07:29:05.375Z,1012.48
2022-07-30T07:30:05.981Z,1012.52
2022-07-30T07:31:04.898Z,1012.52
2022-07-30T07:32:07.601Z,1012.50
2022-07-30T07:33:04.899Z,1012.47
2022-07-30T07:34:04.937Z,1012.47
2022-07-30T07:35:04.982Z,1012.48
2022-07-30T07:36:05.011Z,1012.47
2022-07-30T07:37:05.052Z,1012.50
2022-07-30T07:38:05.088Z,1012.50
2022-07-30T07:39:05.129Z,1012.50
2022-07-30T07:40:05.162Z,1012.50
2022-07-30T07:41:05.203Z,1012.53
2022-07-30T07:42:05.241Z,1012.50
2022-07-30T07:43:05.277Z,1012.49
2022-07-30T07:44:05.316Z,1012.53
2022-07-30T07:45:05.353Z,1012.51
2022-07-30T07:46:05.475Z,1012.54
2022-07-30T07:47:05.429Z,1012.55
2022-07-30T07:48:05.467Z,1012.56
2022-07-30T07:49:05.533Z,1012.55
2022-07-30T07:50:05.542Z,1012.56
2022-07-30T07:51:09.541Z,1012.57
2022-07-30T07:52:05.617Z,1012.61
2022-07-30T07:53:05.657Z,1012.57
2022-07-30T07:54:21.129Z,1012.57
2022-07-30T07:55:05.734Z,1012.56
2022-07-30T07:56:05.771Z,1012.56
2022-07-30T07:57:06.125Z,1012.58
2022-07-30T07:58:05.846Z,1012.59
2022-07-30T07:59:05.887Z,1012.58
2022-07-30T08:00:05.923Z,1012.59
2022-07-30T08:01:05.992Z,1012.57
2022-07-30T08:02:06.036Z,1012.58
2022-07-30T08:03:06.036Z,1012.59
2022-07-30T08:04:10.360Z,1012.62
2022-07-30T08:05:06.114Z,1012.61
2022-07-30T08:06:06.650Z,1012.58
2022-07-30T08:07:06.187Z,1012.62
2022-07-30T08:08:06.224Z,1012.60
2022-07-30T08:09:06.263Z,1012.59
2022-07-30T08:10:06.301Z,1012.58
2022-07-30T08:11:06.344Z,1012.52
2022-07-30T08:12:06.376Z,1012.56
2022-07-30T08:13:06.417Z,1012.53
2022-07-30T08:14:06.454Z,1012.53
2022-07-30T08:15:06.495Z,1012.54
2022-07-30T08:16:06.529Z,1012.60
2022-07-30T08:17:07.175Z,1012.60
2022-07-30T08:18:06.607Z,1012.61
2022-07-30T08:19:06.647Z,1012.61
2022-07-30T08:20:06.682Z,1012.61
2022-07-30T08:21:06.719Z,1012.63
2022-07-30T08:22:06.762Z,1012.60
2022-07-30T08:23:06.798Z,1012.59
2022-07-30T08:24:06.833Z,1012.57
2022-07-30T08:25:06.874Z,1012.53
2022-07-30T08:26:06.910Z,1012.57
2022-07-30T08:27:06.956Z,1012.53
2022-07-30T08:28:06.989Z,1012.50
2022-07-30T08:29:07.026Z,1012.52
2022-07-30T08:30:07.066Z,1012.49
2022-07-30T08:31:07.104Z,1012.46
2022-07-30T08:32:07.141Z,1012.49
2022-07-30T08:33:07.181Z,1012.47
2022-07-30T08:34:07.217Z,1012.47
2022-07-30T08:35:07.328Z,1012.50
2022-07-30T08:36:09.540Z,1012.52
2022-07-30T08:37:07.336Z,1012.50
2022-07-30T08:38:07.375Z,1012.50
2022-07-30T08:39:07.413Z,1012.50
2022-07-30T08:40:07.447Z,1012.53
2022-07-30T08:41:07.511Z,1012.50
2022-07-30T08:42:07.522Z,1012.53
2022-07-30T08:43:07.562Z,1012.52
2022-07-30T08:44:11.600Z,1012.56
2022-07-30T08:45:07.641Z,1012.54
2022-07-30T08:46:07.679Z,1012.57
2022-07-30T08:47:07.716Z,1012.58
2022-07-30T08:48:07.755Z,1012.60
2022-07-30T08:49:11.225Z,1012.60
2022-07-30T08:50:07.831Z,1012.65
2022-07-30T08:51:07.871Z,1012.58
2022-07-30T08:52:07.910Z,1012.62
2022-07-30T08:53:07.946Z,1012.60
2022-07-30T08:54:07.985Z,1012.64
2022-07-30T08:55:08.023Z,1012.65
2022-07-30T08:56:08.061Z,1012.64
2022-07-30T08:57:08.106Z,1012.67
2022-07-30T08:58:08.139Z,1012.67
2022-07-30T08:59:08.178Z,1012.65
2022-07-30T09:00:08.217Z,1012.64
2022-07-30T09:01:08.313Z,1012.65
2022-07-30T09:02:12.435Z,1012.65
2022-07-30T09:03:08.340Z,1012.60
2022-07-30T09:04:08.390Z,1012.60
2022-07-30T09:05:08.410Z,1012.63
2022-07-30T09:06:08.451Z,1012.64
2022-07-30T09:07:08.489Z,1012.60
2022-07-30T09:08:09.023Z,1012.61
2022-07-30T09:09:08.565Z,1012.60
2022-07-30T09:10:08.605Z,1012.59
2022-07-30T09:11:08.643Z,1012.58
2022-07-30T09:12:08.679Z,1012.61
2022-07-30T09:13:08.727Z,1012.61
2022-07-30T09:14:08.819Z,1012.58
2022-07-30T09:15:08.798Z,1012.60
2022-07-30T09:16:08.876Z,1012.59
2022-07-30T09:17:08.874Z,1012.61
2022-07-30T09:18:08.912Z,1012.61
2022-07-30T09:19:08.953Z,1012.61
2022-07-30T09:20:08.998Z,1012.57
2022-07-30T09:21:09.035Z,1012.57
2022-07-30T09:22:09.069Z,1012.62
2022-07-30T09:23:09.109Z,1012.60
2022-07-30T09:24:09.146Z,1012.64
2022-07-30T09:25:09.185Z,1012.63
2022-07-30T09:26:09.224Z,1012.62
2022-07-30T09:27:09.264Z,1012.61
2022-07-30T09:28:15.695Z,1012.58
2022-07-30T09:29:09.345Z,1012.61
2022-07-30T09:30:09.379Z,1012.57
2022-07-30T09:31:09.418Z,1012.57
2022-07-30T09:32:09.459Z,1012.56
2022-07-30T09:33:09.496Z,1012.54
2022-07-30T09:34:09.551Z,1012.53
2022-07-30T09:35:09.577Z,1012.52
2022-07-30T09:36:09.613Z,1012.53
2022-07-30T09:37:09.655Z,1012.51
2022-07-30T09:38:09.702Z,1012.54
2022-07-30T09:39:09.739Z,1012.52
2022-07-30T09:40:09.769Z,1012.55
2022-07-30T09:41:29.022Z,1012.56
2022-07-30T09:42:09.848Z,1012.54
2022-07-30T09:43:09.887Z,1012.55
2022-07-30T09:44:09.926Z,1012.54
2022-07-30T09:45:09.967Z,1012.54
2022-07-30T09:46:10.004Z,1012.54
2022-07-30T09:47:10.046Z,1012.55
2022-07-30T09:48:10.087Z,1012.57
2022-07-30T09:49:10.286Z,1012.56
2022-07-30T09:50:10.165Z,1012.58
2022-07-30T09:51:15.653Z,1012.55
2022-07-30T09:52:10.389Z,1012.55
2022-07-30T09:53:11.877Z,1012.58
2022-07-30T09:54:10.318Z,1012.59
2022-07-30T09:55:10.359Z,1012.56
2022-07-30T09:56:10.395Z,1012.58
2022-07-30T09:57:23.114Z,1012.58
2022-07-30T09:59:18.660Z,1012.60
2022-07-30T10:00:10.556Z,1012.60
2022-07-30T10:01:10.600Z,1012.58
2022-07-30T10:02:10.724Z,1012.58
2022-07-30T10:03:12.589Z,1012.54
2022-07-30T10:04:10.711Z,1012.56
2022-07-30T10:05:10.753Z,1012.58
2022-07-30T10:06:11.234Z,1012.55
2022-07-30T10:07:10.830Z,1012.55
2022-07-30T10:08:16.775Z,1012.51
2022-07-30T10:09:14.113Z,1012.54
2022-07-30T10:10:10.948Z,1012.53
2022-07-30T10:11:10.989Z,1012.57
2022-07-30T10:12:11.210Z,1012.56
2022-07-30T10:13:11.066Z,1012.54
2022-07-30T10:14:11.105Z,1012.55
2022-07-30T10:15:11.146Z,1012.53
2022-07-30T10:16:11.185Z,1012.57
2022-07-30T10:17:11.225Z,1012.55
2022-07-30T10:18:11.264Z,1012.57
2022-07-30T10:19:18.071Z,1012.54
2022-07-30T10:20:12.351Z,1012.54
2022-07-30T10:21:11.383Z,1012.55
2022-07-30T10:22:11.557Z,1012.57
2022-07-30T10:23:15.540Z,1012.55
2022-07-30T10:24:11.501Z,1012.56
2022-07-30T10:25:11.541Z,1012.57
2022-07-30T10:26:11.589Z,1012.60
2022-07-30T10:27:11.957Z,1012.57
2022-07-30T10:28:11.661Z,1012.55
2022-07-30T10:29:12.881Z,1012.55
2022-07-30T10:30:12.425Z,1012.56
2022-07-30T10:31:47.163Z,1012.53
2022-07-30T10:32:11.824Z,1012.57
2022-07-30T10:33:37.461Z,1012.54
2022-07-30T10:34:11.906Z,1012.57
2022-07-30T10:35:11.940Z,1012.54
2022-07-30T10:36:11.981Z,1012.55
2022-07-30T10:37:12.350Z,1012.52
2022-07-30T10:38:19.256Z,1012.53
2022-07-30T10:40:16.125Z,1012.53
2022-07-30T10:41:16.158Z,1012.54
2022-07-30T10:43:20.254Z,1012.48
2022-07-30T10:44:20.257Z,1012.48
2022-07-30T10:46:24.336Z,1012.46
2022-07-30T10:47:29.110Z,1012.45
2022-07-30T10:49:28.615Z,1012.47
2022-07-30T10:50:28.519Z,1012.47
2022-07-30T10:52:32.584Z,1012.49
2022-07-30T10:53:32.618Z,1012.45
2022-07-30T10:55:38.828Z,1012.47
2022-07-30T10:56:36.746Z,1012.45
2022-07-30T10:58:40.802Z,1012.41
2022-07-30T10:59:40.838Z,1012.42
2022-07-30T11:01:47.418Z,1012.39
2022-07-30T11:02:44.942Z,1012.40
2022-07-30T11:04:37.934Z,1012.45
2022-07-30T11:05:45.192Z,1012.42
2022-07-30T11:07:42.034Z,1012.40
2022-07-30T11:08:42.761Z,1012.40
2022-07-30T11:10:46.141Z,1012.41
2022-07-30T11:12:01.367Z,1012.38
2022-07-30T11:13:50.261Z,1012.37
2022-07-30T11:14:50.269Z,1012.42
2022-07-30T11:16:54.346Z,1012.38
2022-07-30T11:17:54.377Z,1012.39
2022-07-30T11:19:59.290Z,1012.38
2022-07-30T11:20:58.477Z,1012.38
2022-07-30T11:23:02.543Z,1012.35
2022-07-30T11:24:02.578Z,1012.37
2022-07-30T11:26:07.119Z,1012.36
2022-07-30T11:27:06.678Z,1012.29
2022-07-30T11:29:10.744Z,1012.33
2022-07-30T11:30:10.780Z,1012.40
2022-07-30T11:32:14.847Z,1012.35
2022-07-30T11:33:14.884Z,1012.37
2022-07-30T11:35:18.946Z,1012.37
2022-07-30T11:36:19.000Z,1012.34
2022-07-30T11:38:23.051Z,1012.38
2022-07-30T11:39:23.091Z,1012.37
2022-07-30T11:41:27.182Z,1012.34
2022-07-30T11:42:27.188Z,1012.46
2022-07-30T11:44:20.204Z,1012.42
2022-07-30T11:45:20.211Z,1012.41
2022-07-30T11:47:24.275Z,1012.36
2022-07-30T11:48:24.314Z,1012.38
2022-07-30T11:50:28.415Z,1012.34
2022-07-30T11:51:28.417Z,1012.34
2022-07-30T11:53:32.482Z,1012.34
2022-07-30T11:54:32.517Z,1012.32
2022-07-30T11:56:36.598Z,1012.35
2022-07-30T11:57:38.418Z,1012.35
2022-07-30T11:59:40.700Z,1012.33
2022-07-30T12:00:40.747Z,1012.33
2022-07-30T12:02:44.875Z,1012.39
2022-07-30T12:03:44.850Z,1012.32
2022-07-30T12:05:52.561Z,1012.36
2022-07-30T12:06:48.955Z,1012.37
2022-07-30T12:08:58.230Z,1012.38
2022-07-30T12:09:53.062Z,1012.36
2022-07-30T12:11:57.136Z,1012.37
2022-07-30T12:12:57.167Z,1012.44
2022-07-30T12:14:50.150Z,1012.40
2022-07-30T12:15:50.188Z,1012.41
2022-07-30T12:18:05.609Z,1012.37
2022-07-30T12:18:54.292Z,1012.34
2022-07-30T12:20:59.446Z,1012.33
2022-07-30T12:21:58.398Z,1012.35
2022-07-30T12:24:02.469Z,1012.34
2022-07-30T12:25:02.504Z,1012.31
2022-07-30T12:27:06.743Z,1012.31
2022-07-30T12:28:06.618Z,1012.30
2022-07-30T12:30:10.685Z,1012.36
2022-07-30T12:31:10.720Z,1012.41
2022-07-30T12:32:10.762Z,1012.42
2022-07-30T12:33:10.808Z,1012.46
2022-07-30T12:34:10.848Z,1012.42
2022-07-30T12:35:10.890Z,1012.39
2022-07-30T12:36:10.935Z,1012.41
2022-07-30T12:37:10.977Z,1012.40
2022-07-30T12:38:11.019Z,1012.45
2022-07-30T12:39:11.063Z,1012.41
2022-07-30T12:40:14.802Z,1012.42
2022-07-30T12:41:11.143Z,1012.42
2022-07-30T12:42:11.192Z,1012.38
2022-07-30T12:43:13.731Z,1012.39
2022-07-30T12:44:11.294Z,1012.38
2022-07-30T12:45:11.329Z,1012.36
2022-07-30T12:46:14.844Z,1012.40
2022-07-30T12:47:11.401Z,1012.40
2022-07-30T12:48:11.446Z,1012.36
2022-07-30T12:49:21.382Z,1012.34
2022-07-30T12:50:11.610Z,1012.36
2022-07-30T12:51:11.576Z,1012.39
2022-07-30T12:52:18.426Z,1012.38
2022-07-30T12:53:11.657Z,1012.37
2022-07-30T12:54:11.701Z,1012.38
2022-07-30T12:55:11.743Z,1012.36
2022-07-30T12:56:11.787Z,1012.33
2022-07-30T12:57:11.828Z,1012.34